Time;durP1;ratioP1;P1;durP2;ratioP2;P2;SDS_P1;SDS_P2;PMS_P1;PMS_P2;Temp;Humidity;BMP_temperature;BMP_pressure;BME280_temperature;BME280_humidity;BME280_pressure;Samples;Min_cycle;Max_cycle;Signal;HPM_P1;HPM_P2
2022/03/14 00:00:58;;;;;;;;;;;;;;;18.27;48.18;101687.66;4973843;28;19918;-77
2022/03/14 00:03:25;;;;;;;;;;;;;;;18.27;48.08;101687.66;4962915;28;19922;-77
2022/03/14 00:05:51;;;;;;;;;;;;;;;18.26;48.07;101692.00;4976920;28;19965;-77
2022/03/14 00:08:16;;;;;;;;;;;;;;;18.26;48.02;101688.53;4963575;28;19930;-77
2022/03/14 00:10:45;;;;;;;;;;;;;;;18.26;48.17;101693.72;4947425;28;19918;-77
2022/03/14 00:13:12;;;;;;;;;;;;;;;18.26;48.10;101697.19;4980903;28;19918;-77
2022/03/14 00:15:40;;;;;;;;;;;;;;;18.25;48.26;101697.22;4963652;28;19932;-77
2022/03/14 00:18:07;;;;;;;;;;;;;;;18.25;48.25;101697.22;4961827;28;20274;-77
2022/03/14 00:20:32;;;;;;;;;;;;;;;18.26;48.19;101701.53;4977842;28;19918;-77
2022/03/14 00:22:59;;;;;;;;;;;;;;;18.25;48.19;101703.28;4954406;28;19921;-78
2022/03/14 00:25:24;;;;;;;;;;;;;;;18.26;48.23;101699.81;4981787;28;19914;-77
2022/03/14 00:27:49;;;;;;;;;;;;;;;18.26;48.02;101699.81;4961871;28;19953;-77
2022/03/14 00:30:15;;;;;;;;;;;;;;;18.25;48.04;101692.00;4955919;28;19925;-77
2022/03/14 00:32:40;;;;;;;;;;;;;;;18.25;48.21;101697.22;4943575;29;19922;-77
2022/03/14 00:35:07;;;;;;;;;;;;;;;18.24;48.09;101693.72;4978000;28;19918;-78
2022/03/14 00:37:33;;;;;;;;;;;;;;;18.24;48.02;101705.88;4962908;28;20464;-77
2022/03/14 00:39:58;;;;;;;;;;;;;;;18.23;48.21;101706.75;4943023;29;20025;-77
2022/03/14 00:42:25;;;;;;;;;;;;;;;18.24;48.04;101700.69;4943347;29;19942;-78
2022/03/14 00:44:50;;;;;;;;;;;;;;;18.23;48.19;101709.38;4947174;28;20025;-78
2022/03/14 00:47:16;;;;;;;;;;;;;;;18.24;48.00;101711.09;4944200;29;19953;-77
2022/03/14 00:49:42;;;;;;;;;;;;;;;18.24;48.18;101708.50;4956470;28;19970;-77
2022/03/14 00:52:07;;;;;;;;;;;;;;;18.22;48.31;101700.66;4939821;29;19926;-77
2022/03/14 00:54:32;;;;;;;;;;;;;;;18.23;48.04;101707.63;4961482;28;19918;-78
2022/03/14 00:56:58;;;;;;;;;;;;;;;18.23;47.97;101711.97;4941813;28;19926;-77
2022/03/14 00:59:24;;;;;;;;;;;;;;;18.22;47.93;101713.69;4948185;28;19922;-78
2022/03/14 01:01:50;;;;;;;;;;;;;;;18.22;48.18;101713.69;4962858;28;19922;-78
2022/03/14 01:04:15;;;;;;;;;;;;;;;18.23;48.02;101723.25;4977512;28;20349;-77
2022/03/14 01:06:40;;;;;;;;;;;;;;;18.22;48.01;101726.72;4952439;29;20428;-77
2022/03/14 01:09:07;;;;;;;;;;;;;;;18.21;48.07;101735.41;4948861;28;19918;-77
2022/03/14 01:11:33;;;;;;;;;;;;;;;18.22;48.09;101737.13;4944830;28;19929;-77
2022/03/14 01:13:58;;;;;;;;;;;;;;;18.23;48.08;101744.09;4943876;28;19918;-77
2022/03/14 01:16:23;;;;;;;;;;;;;;;18.21;48.09;101740.63;4959065;28;19926;-78
2022/03/14 01:18:49;;;;;;;;;;;;;;;18.22;48.31;101744.94;4973512;28;20285;-79
2022/03/14 01:21:14;;;;;;;;;;;;;;;18.22;48.01;101749.31;4949981;28;20361;-77
2022/03/14 01:23:39;;;;;;;;;;;;;;;18.21;48.38;101748.44;4961100;28;20009;-78
2022/03/14 01:26:06;;;;;;;;;;;;;;;18.21;48.03;101751.03;4948315;29;19933;-77
2022/03/14 01:28:31;;;;;;;;;;;;;;;18.20;48.21;101745.81;4941506;29;19934;-77
2022/03/14 01:30:58;;;;;;;;;;;;;;;18.20;48.13;101746.69;4961708;28;20296;-77
2022/03/14 01:33:23;;;;;;;;;;;;;;;18.20;48.18;101751.03;4946402;28;19977;-78
2022/03/14 01:35:48;;;;;;;;;;;;;;;18.21;48.01;101751.03;4946750;28;19922;-77
2022/03/14 01:38:13;;;;;;;;;;;;;;;18.21;47.97;101751.03;4961517;28;20017;-77
2022/03/14 01:40:39;;;;;;;;;;;;;;;18.20;48.06;101757.09;4964726;28;20369;-77
2022/03/14 01:43:04;;;;;;;;;;;;;;;18.21;48.01;101764.06;4944859;29;19926;-77
2022/03/14 01:45:29;;;;;;;;;;;;;;;18.19;48.15;101759.72;4979686;28;19922;-77
2022/03/14 01:47:54;;;;;;;;;;;;;;;18.19;47.91;101765.81;4979750;28;20000;-79
2022/03/14 01:50:20;;;;;;;;;;;;;;;18.19;47.93;101760.59;4947300;28;20393;-77
2022/03/14 01:52:45;;;;;;;;;;;;;;;18.19;48.12;101757.13;4947763;28;20376;-77
2022/03/14 01:55:11;;;;;;;;;;;;;;;18.18;47.95;101753.66;4959060;28;19918;-77
2022/03/14 01:57:37;;;;;;;;;;;;;;;18.19;48.22;101754.53;4963581;28;19993;-78
2022/03/14 02:00:07;;;;;;;;;;;;;;;18.20;48.30;101756.25;4961730;28;19960;-79
2022/03/14 02:02:32;;;;;;;;;;;;;;;18.19;48.10;101759.72;4970680;28;19914;-79
2022/03/14 02:04:58;;;;;;;;;;;;;;;18.18;48.16;101758.88;4964584;28;19965;-79
2022/03/14 02:07:24;;;;;;;;;;;;;;;18.18;48.23;101761.47;4944289;29;19922;-79
2022/03/14 02:09:49;;;;;;;;;;;;;;;18.18;48.08;101764.06;4961169;28;19925;-79
2022/03/14 02:12:14;;;;;;;;;;;;;;;18.18;48.01;101774.50;4963218;28;20388;-79
2022/03/14 02:14:40;;;;;;;;;;;;;;;18.18;48.20;101776.22;4956630;28;19973;-79
2022/03/14 02:17:06;;;;;;;;;;;;;;;18.19;48.07;101777.97;4933937;28;19918;-79
2022/03/14 02:19:31;;;;;;;;;;;;;;;18.17;47.98;101783.16;4944291;29;19926;-77
2022/03/14 02:21:58;;;;;;;;;;;;;;;18.18;48.09;101779.72;4974774;28;20269;-79
2022/03/14 02:24:26;;;;;;;;;;;;;;;18.18;47.97;101792.72;4971088;28;19922;-79
2022/03/14 02:26:51;;;;;;;;;;;;;;;18.17;48.04;101790.97;4965959;28;19914;-79
2022/03/14 02:29:17;;;;;;;;;;;;;;;18.16;48.02;101791.84;4946437;28;19918;-79
2022/03/14 02:31:42;;;;;;;;;;;;;;;18.17;47.88;101790.97;4950486;28;19924;-79
2022/03/14 02:34:07;;;;;;;;;;;;;;;18.16;48.07;101786.66;4947675;28;19929;-79
2022/03/14 02:36:34;;;;;;;;;;;;;;;18.17;48.21;101784.91;4964246;28;19941;-79
2022/03/14 02:38:59;;;;;;;;;;;;;;;18.16;48.00;101793.56;4982806;28;19976;-79
2022/03/14 02:41:25;;;;;;;;;;;;;;;18.17;47.72;101795.31;4966178;28;19918;-79
2022/03/14 02:43:50;;;;;;;;;;;;;;;18.18;47.93;101804.88;4965347;28;19918;-79
2022/03/14 02:46:15;;;;;;;;;;;;;;;18.17;48.10;101809.22;4964849;28;20341;-79
2022/03/14 02:48:41;;;;;;;;;;;;;;;18.18;48.04;101818.78;4948791;28;19929;-79
2022/03/14 02:51:07;;;;;;;;;;;;;;;18.16;47.91;101823.13;4963438;28;19918;-79
2022/03/14 02:53:32;;;;;;;;;;;;;;;18.17;48.10;101823.97;4964123;28;19925;-79
2022/03/14 02:55:57;;;;;;;;;;;;;;;18.16;48.08;101836.13;4947796;28;19954;-79
2022/03/14 02:58:23;;;;;;;;;;;;;;;18.16;47.94;101836.13;4962258;28;20384;-79
2022/03/14 03:00:50;;;;;;;;;;;;;;;18.16;48.17;101838.75;4947731;28;19929;-79
2022/03/14 03:03:15;;;;;;;;;;;;;;;18.15;47.99;101842.19;4962736;28;20408;-79
2022/03/14 03:05:43;;;;;;;;;;;;;;;18.15;47.95;101852.63;4945470;28;19929;-79
2022/03/14 03:08:09;;;;;;;;;;;;;;;18.15;48.04;101847.41;4961084;28;19926;-79
2022/03/14 03:10:34;;;;;;;;;;;;;;;18.14;48.01;101848.28;4975221;28;19923;-79
2022/03/14 03:13:00;;;;;;;;;;;;;;;18.15;47.87;101850.00;4975899;28;19950;-79
2022/03/14 03:15:25;;;;;;;;;;;;;;;18.14;48.02;101853.50;4989476;28;19918;-79
2022/03/14 03:17:51;;;;;;;;;;;;;;;18.14;47.99;101860.41;4965723;28;19925;-79
2022/03/14 03:20:16;;;;;;;;;;;;;;;18.14;47.88;101861.31;4952620;28;19933;-79
2022/03/14 03:22:41;;;;;;;;;;;;;;;18.13;47.99;101864.75;4972607;28;19922;-79
2022/03/14 03:25:07;;;;;;;;;;;;;;;18.13;47.81;101869.97;4956683;28;19973;-79
2022/03/14 03:27:32;;;;;;;;;;;;;;;18.13;47.88;101875.19;4969191;28;19949;-79
2022/03/14 03:29:58;;;;;;;;;;;;;;;18.14;48.12;101883.88;4964787;28;19922;-79
2022/03/14 03:32:23;;;;;;;;;;;;;;;18.14;48.04;101889.06;4949955;28;19922;-79
2022/03/14 03:34:49;;;;;;;;;;;;;;;18.14;47.97;101886.47;4963590;28;19926;-79
2022/03/14 03:37:14;;;;;;;;;;;;;;;18.14;47.88;101891.69;4967211;28;19922;-79
2022/03/14 03:39:39;;;;;;;;;;;;;;;18.14;48.01;101894.28;4950370;28;19926;-79
2022/03/14 03:42:05;;;;;;;;;;;;;;;18.13;47.82;101895.16;4965915;28;19922;-79
2022/03/14 03:44:31;;;;;;;;;;;;;;;18.12;47.79;101896.91;4965294;28;19976;-79
2022/03/14 03:46:56;;;;;;;;;;;;;;;18.13;48.17;101902.97;4966453;28;19926;-79
2022/03/14 03:49:21;;;;;;;;;;;;;;;18.12;48.12;101906.44;4962905;28;19914;-79
2022/03/14 03:51:46;;;;;;;;;;;;;;;18.12;47.95;101911.63;4950368;28;19933;-79
2022/03/14 03:54:12;;;;;;;;;;;;;;;18.12;48.16;101917.75;4949222;28;19922;-79
2022/03/14 03:56:38;;;;;;;;;;;;;;;18.12;48.05;101917.75;4977036;28;19922;-79
2022/03/14 03:59:03;;;;;;;;;;;;;;;18.12;47.86;101925.56;4960364;28;19942;-79
2022/03/14 04:01:30;;;;;;;;;;;;;;;18.11;48.18;101923.81;4955674;28;19922;-79
2022/03/14 04:03:57;;;;;;;;;;;;;;;18.12;47.98;101930.78;4977474;28;19925;-79
2022/03/14 04:06:25;;;;;;;;;;;;;;;18.11;48.12;101931.63;4964777;28;19918;-79
2022/03/14 04:08:50;;;;;;;;;;;;;;;18.11;48.10;101942.03;4964235;28;19925;-79
2022/03/14 04:11:16;;;;;;;;;;;;;;;18.11;48.10;101947.25;4941674;28;20369;-79
2022/03/14 04:13:42;;;;;;;;;;;;;;;18.11;48.12;101939.44;4964141;28;19914;-79
2022/03/14 04:16:07;;;;;;;;;;;;;;;18.11;48.10;101941.16;4981007;28;19922;-79
2022/03/14 04:18:33;;;;;;;;;;;;;;;18.10;48.26;101945.53;4962609;28;20001;-79
2022/03/14 04:20:59;;;;;;;;;;;;;;;18.11;48.24;101951.59;4963302;28;19918;-79
2022/03/14 04:23:25;;;;;;;;;;;;;;;18.10;48.04;101958.53;4950694;28;19981;-80
2022/03/14 04:25:51;;;;;;;;;;;;;;;18.09;48.12;101968.09;4974578;28;19960;-81
2022/03/14 04:28:16;;;;;;;;;;;;;;;18.08;48.12;101976.75;4962928;28;20031;-79
2022/03/14 04:30:41;;;;;;;;;;;;;;;18.09;48.26;101978.50;4946305;28;20403;-79
2022/03/14 04:33:08;;;;;;;;;;;;;;;18.09;48.21;101995.84;4963228;28;20399;-79
2022/03/14 04:35:33;;;;;;;;;;;;;;;18.08;48.11;101987.19;4964394;28;20382;-79
2022/03/14 04:37:58;;;;;;;;;;;;;;;18.08;48.26;101992.38;4959535;29;19950;-79
2022/03/14 04:40:23;;;;;;;;;;;;;;;18.07;48.35;101992.38;4976161;28;19922;-79
2022/03/14 04:42:49;;;;;;;;;;;;;;;18.07;48.12;101995.88;4946330;29;19922;-79
2022/03/14 04:45:14;;;;;;;;;;;;;;;18.07;48.16;102008.91;4946168;28;19927;-79
2022/03/14 04:47:39;;;;;;;;;;;;;;;18.07;48.35;102008.91;4963414;28;19930;-79
2022/03/14 04:50:05;;;;;;;;;;;;;;;18.07;48.31;102016.72;4954543;28;19993;-78
2022/03/14 04:52:30;;;;;;;;;;;;;;;18.06;48.20;102019.28;4980201;28;19972;-79
2022/03/14 04:54:56;;;;;;;;;;;;;;;18.05;48.32;102026.25;4962645;28;20356;-79
2022/03/14 04:57:21;;;;;;;;;;;;;;;18.05;48.29;102028.84;4956112;28;19923;-79
2022/03/14 04:59:47;;;;;;;;;;;;;;;18.06;48.43;102035.78;4939057;28;20377;-78
2022/03/14 05:02:12;;;;;;;;;;;;;;;18.07;48.39;102045.34;4952865;28;20262;-79
2022/03/14 05:04:38;;;;;;;;;;;;;;;18.06;48.36;102050.53;4954900;29;20376;-79
2022/03/14 05:07:04;;;;;;;;;;;;;;;18.06;48.32;102054.03;4962939;28;20411;-79
2022/03/14 05:09:29;;;;;;;;;;;;;;;18.06;48.21;102063.56;4933017;29;19922;-79
2022/03/14 05:11:54;;;;;;;;;;;;;;;18.06;48.21;102067.03;4939253;28;19922;-79
2022/03/14 05:14:19;;;;;;;;;;;;;;;18.05;48.19;102067.03;4981771;28;19969;-79
2022/03/14 05:16:47;;;;;;;;;;;;;;;18.04;48.21;102073.97;4993359;28;19932;-79
2022/03/14 05:19:12;;;;;;;;;;;;;;;18.05;48.37;102078.34;4960631;28;19926;-79
2022/03/14 05:21:38;;;;;;;;;;;;;;;18.05;48.40;102080.03;4961991;28;19929;-79
2022/03/14 05:24:05;;;;;;;;;;;;;;;18.05;48.52;102087.84;4942525;28;19960;-79
2022/03/14 05:26:30;;;;;;;;;;;;;;;18.05;48.41;102090.47;4955537;28;20376;-79
2022/03/14 05:28:56;;;;;;;;;;;;;;;18.06;48.31;102106.13;4965649;28;19926;-78
2022/03/14 05:33:56;;;;;;;;;;;;;;;18.04;48.49;102106.97;5296794;23;19926;-80
2022/03/14 05:36:21;;;;;;;;;;;;;;;18.04;48.62;102104.38;4951603;29;19925;-79
2022/03/14 05:38:47;;;;;;;;;;;;;;;18.04;48.66;102112.19;4973549;28;19933;-78
2022/03/14 05:41:12;;;;;;;;;;;;;;;18.02;48.72;102112.16;4983926;28;20012;-80
2022/03/14 05:43:37;;;;;;;;;;;;;;;18.02;48.75;102122.56;4965743;28;19922;-79
2022/03/14 05:46:09;;;;;;;;;;;;;;;18.02;48.90;102129.53;4974683;28;19961;-79
2022/03/14 05:48:35;;;;;;;;;;;;;;;18.02;48.67;102126.91;4977555;28;19981;-79
2022/03/14 05:51:02;;;;;;;;;;;;;;;18.00;48.68;102124.28;4950602;28;20379;-79
2022/03/14 05:53:27;;;;;;;;;;;;;;;18.00;48.60;102131.25;4975484;28;19917;-79
2022/03/14 05:55:52;;;;;;;;;;;;;;;18.01;48.63;102127.78;4954364;28;20029;-79
2022/03/14 05:58:18;;;;;;;;;;;;;;;18.00;48.55;102129.50;4978833;28;19981;-79
2022/03/14 06:00:44;;;;;;;;;;;;;;;18.00;48.53;102134.72;4944477;28;19922;-78
2022/03/14 06:03:10;;;;;;;;;;;;;;;18.00;48.51;102134.72;4959462;28;19930;-78
2022/03/14 06:05:35;;;;;;;;;;;;;;;18.00;48.50;102137.31;4960555;28;19937;-78
2022/03/14 06:08:00;;;;;;;;;;;;;;;17.99;48.66;102140.78;4948224;28;19918;-78
2022/03/14 06:10:27;;;;;;;;;;;;;;;18.01;48.59;102152.09;4963891;28;19925;-78
2022/03/14 06:12:52;;;;;;;;;;;;;;;18.00;48.72;102162.50;4963654;28;19918;-78
2022/03/14 06:15:18;;;;;;;;;;;;;;;18.00;48.82;102163.34;4963908;28;19924;-78
2022/03/14 06:17:44;;;;;;;;;;;;;;;18.00;48.73;102171.16;4964612;28;19925;-79
2022/03/14 06:20:10;;;;;;;;;;;;;;;18.00;48.84;102178.13;4962749;28;19919;-78
2022/03/14 06:22:39;;;;;;;;;;;;;;;18.00;48.88;102180.72;4981362;28;19937;-78
2022/03/14 06:25:05;;;;;;;;;;;;;;;18.00;48.59;102183.31;4948172;28;20016;-79
2022/03/14 06:27:30;;;;;;;;;;;;;;;18.00;48.71;102191.16;4947372;28;19949;-78
2022/03/14 06:29:55;;;;;;;;;;;;;;;18.00;48.73;102197.22;4980834;28;19983;-79
2022/03/14 06:32:21;;;;;;;;;;;;;;;18.00;48.79;102204.16;4962524;28;19914;-80
2022/03/14 06:34:46;;;;;;;;;;;;;;;18.00;48.68;102206.78;4963083;28;19933;-79
2022/03/14 06:37:11;;;;;;;;;;;;;;;17.99;48.66;102215.47;4947339;28;19922;-79
2022/03/14 06:39:37;;;;;;;;;;;;;;;17.98;48.61;102219.78;4947557;28;20340;-79
2022/03/14 06:42:08;;;;;;;;;;;;;;;17.98;48.49;102230.19;4962219;28;19925;-79
2022/03/14 06:44:35;;;;;;;;;;;;;;;17.99;48.58;102225.88;4979900;28;19928;-78
2022/03/14 06:47:01;;;;;;;;;;;;;;;17.98;48.41;102224.09;4946349;28;20005;-78
2022/03/14 06:49:26;;;;;;;;;;;;;;;17.99;48.57;102231.94;4945286;28;19949;-79
2022/03/14 06:51:52;;;;;;;;;;;;;;;17.99;48.21;102238.91;4943998;28;19972;-79
2022/03/14 06:54:17;;;;;;;;;;;;;;;17.99;48.45;102236.28;4959994;28;20312;-79
2022/03/14 06:56:43;;;;;;;;;;;;;;;17.99;48.32;102247.59;4960037;28;19922;-79
2022/03/14 06:59:09;;;;;;;;;;;;;;;18.00;48.50;102251.91;4945893;28;19969;-79
2022/03/14 07:01:34;;;;;;;;;;;;;;;18.00;48.08;102246.72;4961124;28;19914;-79
2022/03/14 07:03:59;;;;;;;;;;;;;;;18.01;48.33;102255.41;4961081;28;19914;-79
2022/03/14 07:06:25;;;;;;;;;;;;;;;18.01;48.34;102250.22;4965043;28;19914;-79
2022/03/14 07:08:50;;;;;;;;;;;;;;;18.02;48.18;102249.34;4950523;28;19924;-79
2022/03/14 07:11:15;;;;;;;;;;;;;;;18.03;48.04;102248.47;4948117;28;19922;-78
2022/03/14 07:13:41;;;;;;;;;;;;;;;18.03;48.30;102257.19;4963978;28;20444;-79
2022/03/14 07:16:06;;;;;;;;;;;;;;;18.05;48.10;102251.97;4949063;28;19925;-79
2022/03/14 07:18:34;;;;;;;;;;;;;;;18.06;48.01;102257.19;4950760;28;19977;-79
2022/03/14 07:20:59;;;;;;;;;;;;;;;18.06;48.17;102258.94;4969501;28;19921;-79
2022/03/14 07:23:24;;;;;;;;;;;;;;;18.07;47.86;102256.38;4955737;28;19918;-79
2022/03/14 07:25:50;;;;;;;;;;;;;;;18.07;48.16;102258.97;4968508;28;19925;-79
2022/03/14 07:28:15;;;;;;;;;;;;;;;18.07;47.90;102261.56;4966855;28;19965;-79
2022/03/14 07:30:41;;;;;;;;;;;;;;;18.09;48.03;102266.78;4953946;28;19918;-78
2022/03/14 07:33:06;;;;;;;;;;;;;;;18.10;48.13;102268.53;4970002;28;19922;-79
2022/03/14 07:35:32;;;;;;;;;;;;;;;18.13;47.96;102278.13;4969873;28;20365;-79
2022/03/14 07:37:57;;;;;;;;;;;;;;;18.12;47.92;102285.06;4969838;28;19914;-78
2022/03/14 07:40:23;;;;;;;;;;;;;;;18.13;47.79;102292.00;4954830;28;19989;-79
2022/03/14 07:42:49;;;;;;;;;;;;;;;18.13;47.74;102289.41;4970318;28;19925;-79
2022/03/14 07:45:16;;;;;;;;;;;;;;;18.15;47.81;102290.28;4966614;28;19964;-79
2022/03/14 07:47:41;;;;;;;;;;;;;;;18.16;47.89;102292.06;4980876;28;20048;-79
2022/03/14 07:50:08;;;;;;;;;;;;;;;18.18;47.67;102305.97;4967357;28;19950;-79
2022/03/14 07:52:33;;;;;;;;;;;;;;;18.24;47.93;102306.03;4963015;28;20332;-79
2022/03/14 07:54:59;;;;;;;;;;;;;;;18.32;47.88;102313.06;4962225;28;19918;-80
2022/03/14 07:57:24;;;;;;;;;;;;;;;18.36;47.83;102320.06;4962309;28;19914;-80
2022/03/14 07:59:49;;;;;;;;;;;;;;;18.38;47.78;102318.31;4945937;28;19922;-80
2022/03/14 08:02:15;;;;;;;;;;;;;;;18.40;47.79;102314.91;4946347;28;19966;-80
2022/03/14 08:04:40;;;;;;;;;;;;;;;18.43;47.72;102321.88;4962714;28;19918;-79
2022/03/14 08:07:06;;;;;;;;;;;;;;;18.46;47.80;102321.91;4955991;29;19925;-79
2022/03/14 08:09:32;;;;;;;;;;;;;;;18.50;47.69;102326.28;4924971;28;19961;-79
2022/03/14 08:11:58;;;;;;;;;;;;;;;18.55;47.57;102337.63;4922723;29;19923;-83
2022/03/14 08:14:23;;;;;;;;;;;;;;;18.59;47.34;102348.97;4932989;29;19927;-79
2022/03/14 08:16:48;;;;;;;;;;;;;;;18.65;47.40;102351.66;4906560;29;19954;-80
2022/03/14 08:19:14;;;;;;;;;;;;;;;18.70;47.37;102353.44;4920483;29;19973;-80
2022/03/14 08:21:40;;;;;;;;;;;;;;;18.72;47.37;102348.22;4905547;29;19965;-80
2022/03/14 08:24:06;;;;;;;;;;;;;;;18.76;47.18;102346.53;4904148;29;19919;-79
2022/03/14 08:26:32;;;;;;;;;;;;;;;18.80;47.22;102356.19;4902072;29;19925;-79
2022/03/14 08:29:00;;;;;;;;;;;;;;;18.77;47.65;102353.47;4923842;29;19903;-82
2022/03/14 08:40:33;;;;;;;;;;;;;;;18.67;48.09;102381.22;6002073;23;19920;-82
2022/03/14 08:42:59;;;;;;;;;;;;;;;18.61;48.12;102381.16;4995265;28;19978;-83
2022/03/14 08:45:25;;;;;;;;;;;;;;;18.57;48.38;102387.19;4981507;28;19898;-84
2022/03/14 08:47:51;;;;;;;;;;;;;;;18.49;48.71;102393.19;4981823;28;19906;-84
2022/03/14 08:50:17;;;;;;;;;;;;;;;18.46;48.65;102394.88;4981165;28;19921;-84
2022/03/14 08:52:45;;;;;;;;;;;;;;;18.42;48.71;102399.22;4997658;28;19921;-84
2022/03/14 08:55:11;;;;;;;;;;;;;;;18.41;49.02;102402.66;4979314;28;19946;-85
2022/03/14 08:57:37;;;;;;;;;;;;;;;18.44;49.49;102407.91;4980155;28;19914;-84
2022/03/14 09:00:04;;;;;;;;;;;;;;;18.45;49.32;102401.84;4980560;28;19918;-84
2022/03/14 09:02:29;;;;;;;;;;;;;;;18.48;49.30;102399.25;4997216;28;19918;-84
2022/03/14 09:04:55;;;;;;;;;;;;;;;18.55;49.27;102404.53;4980412;28;19921;-84
2022/03/14 09:07:27;;;;;;;;;;;;;;;18.55;49.18;102413.22;4980962;28;19898;-84
2022/03/14 09:09:53;;;;;;;;;;;;;;;18.54;49.20;102413.22;4980598;28;19898;-84
2022/03/14 09:12:19;;;;;;;;;;;;;;;18.57;49.24;102418.47;4981003;28;19905;-84
2022/03/14 09:14:46;;;;;;;;;;;;;;;18.58;49.28;102428.06;4997653;28;19902;-83
2022/03/14 09:17:12;;;;;;;;;;;;;;;18.55;49.24;102426.25;4980551;28;20013;-84
2022/03/14 09:19:38;;;;;;;;;;;;;;;18.55;49.34;102423.66;4981197;28;19913;-84
2022/03/14 09:22:08;;;;;;;;;;;;;;;18.56;49.18;102433.25;4997317;28;19925;-85
2022/03/14 09:24:36;;;;;;;;;;;;;;;18.60;49.40;102436.78;4980328;28;19898;-84
2022/03/14 09:27:02;;;;;;;;;;;;;;;18.59;49.29;102441.09;4980895;28;19957;-84
2022/03/14 09:29:27;;;;;;;;;;;;;;;18.60;49.25;102447.22;4997395;28;19914;-85
2022/03/14 09:31:53;;;;;;;;;;;;;;;18.58;49.45;102452.41;4980725;28;19914;-84
2022/03/14 09:34:18;;;;;;;;;;;;;;;18.61;49.31;102455.03;4998019;28;19905;-84
2022/03/14 09:36:45;;;;;;;;;;;;;;;18.66;49.41;102453.38;4980712;28;19914;-84
2022/03/14 09:39:12;;;;;;;;;;;;;;;18.66;49.09;102450.75;4981077;28;19929;-84
2022/03/14 09:41:39;;;;;;;;;;;;;;;18.69;49.27;102456.00;4997696;28;19984;-84
2022/03/14 09:44:07;;;;;;;;;;;;;;;18.70;49.39;102457.75;4982829;28;19969;-84
2022/03/14 09:51:44;;;;;;;;;;;;;;;18.71;49.54;102464.72;5040328;23;20340;-85
2022/03/14 09:54:10;;;;;;;;;;;;;;;18.74;49.68;102468.22;4984224;28;19954;-85
2022/03/14 09:56:37;;;;;;;;;;;;;;;18.76;49.42;102476.94;4984597;28;19923;-84
2022/03/14 09:59:03;;;;;;;;;;;;;;;18.77;49.65;102483.88;5001052;28;19918;-84
2022/03/14 10:01:29;;;;;;;;;;;;;;;18.79;49.52;102483.09;4983854;28;20688;-85
2022/03/14 10:03:55;;;;;;;;;;;;;;;18.83;49.57;102486.59;5121960;23;20030;-86
2022/03/14 10:06:20;;;;;;;;;;;;;;;18.81;49.83;102483.09;4983020;28;19985;-84
2022/03/14 10:08:46;;;;;;;;;;;;;;;18.82;50.06;102485.72;4982739;28;19918;-86
2022/03/14 10:11:11;;;;;;;;;;;;;;;18.83;50.32;102497.03;4984362;28;19950;-85
2022/03/14 10:13:37;;;;;;;;;;;;;;;18.80;50.57;102503.09;4984296;28;19953;-86
2022/03/14 10:16:03;;;;;;;;;;;;;;;18.87;50.42;102512.75;4983746;28;19956;-85
2022/03/14 10:18:34;;;;;;;;;;;;;;;18.86;50.62;102499.69;4983626;28;19902;-85
2022/03/14 10:21:06;;;;;;;;;;;;;;;18.84;50.50;102511.84;4983156;28;19906;-85
2022/03/14 10:23:39;;;;;;;;;;;;;;;18.84;50.86;102506.63;4983844;28;19926;-85
2022/03/14 10:26:06;;;;;;;;;;;;;;;18.78;51.03;102519.59;4983480;28;19938;-85
2022/03/14 10:28:32;;;;;;;;;;;;;;;18.77;50.73;102523.91;4983214;28;19921;-85
2022/03/14 10:31:02;;;;;;;;;;;;;;;18.76;51.01;102516.06;4984356;28;19997;-85
2022/03/14 10:33:28;;;;;;;;;;;;;;;18.75;50.82;102528.22;4984509;28;19945;-85
2022/03/14 10:35:55;;;;;;;;;;;;;;;18.75;50.90;102519.50;4983908;28;19906;-85
2022/03/14 10:38:21;;;;;;;;;;;;;;;18.74;50.64;102526.47;5000550;28;19928;-85
2022/03/14 10:40:47;;;;;;;;;;;;;;;18.71;51.21;102536.88;4983166;28;19918;-85
2022/03/14 10:43:23;;;;;;;;;;;;;;;18.68;51.23;102531.59;4983177;28;19950;-85
2022/03/14 10:45:48;;;;;;;;;;;;;;;18.69;50.90;102539.44;4982882;28;19925;-83
2022/03/14 10:48:14;;;;;;;;;;;;;;;18.68;50.74;102540.31;4982993;28;19922;-85
2022/03/14 10:50:41;;;;;;;;;;;;;;;18.68;50.91;102540.31;4984174;28;19940;-84
2022/03/14 11:21:35;;;;;;;;;;;;;;;18.66;51.07;102572.41;6104818;23;19940;31
2022/03/14 11:26:50;;;;;;;;;;;;;;;18.69;50.98;102581.16;5618035;23;20824;-85
2022/03/14 11:31:52;;;;;;;;;;;;;;;18.72;50.73;102585.53;5329689;23;19941;-85
2022/03/14 11:34:18;;;;;;;;;;;;;;;18.74;50.77;102580.34;5000406;28;19925;-85
2022/03/14 11:36:43;;;;;;;;;;;;;;;18.77;50.77;102577.78;4983472;28;19922;-85
2022/03/14 11:39:09;;;;;;;;;;;;;;;18.79;50.67;102583.91;4982421;28;19918;-81
2022/03/14 11:41:38;;;;;;;;;;;;;;;18.78;50.79;102590.88;4981888;28;19941;-83
2022/03/14 11:44:04;;;;;;;;;;;;;;;18.79;50.74;102595.25;4983472;28;19898;-83
2022/03/14 11:46:31;;;;;;;;;;;;;;;18.80;50.73;102597.00;4982861;28;19910;-82
2022/03/14 11:49:12;;;;;;;;;;;;;;;18.81;50.70;102605.69;4982622;28;19918;-82
2022/03/14 11:51:38;;;;;;;;;;;;;;;18.80;50.76;102599.59;4980219;28;19918;-81
2022/03/14 11:54:08;;;;;;;;;;;;;;;18.80;50.61;102609.16;4978885;28;19922;-82
2022/03/14 11:56:38;;;;;;;;;;;;;;;18.81;50.60;102614.38;4981655;28;19902;-81
2022/03/14 11:59:08;;;;;;;;;;;;;;;18.81;50.52;102617.00;4982108;28;19925;-81
2022/03/14 12:01:34;;;;;;;;;;;;;;;18.80;50.67;102617.00;4996275;28;19937;-82
2022/03/14 12:04:02;;;;;;;;;;;;;;;18.78;50.65;102618.69;4996996;28;19937;-83
2022/03/14 12:06:46;;;;;;;;;;;;;;;18.79;50.40;102615.22;4979180;28;19981;-80
2022/03/14 12:09:24;;;;;;;;;;;;;;;18.78;50.70;102621.31;4980744;28;19914;-83
2022/03/14 12:11:50;;;;;;;;;;;;;;;18.78;50.77;102622.19;4981648;28;19922;-84
2022/03/14 12:14:53;;;;;;;;;;;;;;;18.76;50.69;102631.69;4996902;28;19905;-82
2022/03/14 12:17:19;;;;;;;;;;;;;;;18.75;50.81;102623.81;4942760;29;19905;-82
2022/03/14 12:19:55;;;;;;;;;;;;;;;18.75;50.79;102619.50;4975769;28;19977;-83
2022/03/14 12:22:27;;;;;;;;;;;;;;;18.73;50.78;102616.00;4983189;28;20016;-82
2022/03/14 12:24:52;;;;;;;;;;;;;;;18.73;50.79;102621.22;4982997;28;19965;-82
2022/03/14 12:27:19;;;;;;;;;;;;;;;18.75;50.61;102624.72;4982968;28;19914;-82
2022/03/14 12:29:45;;;;;;;;;;;;;;;18.76;50.83;102617.78;4982863;28;19930;-83
2022/03/14 12:34:54;;;;;;;;;;;;;;;18.76;50.57;102626.47;4978129;28;19950;-82
2022/03/14 12:37:35;;;;;;;;;;;;;;;18.79;50.49;102637.00;4980175;28;19934;-82
2022/03/14 12:40:01;;;;;;;;;;;;;;;18.78;50.69;102635.22;4979003;28;19922;-82
2022/03/14 12:42:26;;;;;;;;;;;;;;;18.77;50.56;102651.72;4980201;29;19945;-82
2022/03/14 12:45:10;;;;;;;;;;;;;;;18.77;50.61;102648.19;4979279;28;19914;-83
2022/03/14 12:47:40;;;;;;;;;;;;;;;18.76;50.68;102669.94;4995667;28;19914;-82
2022/03/14 12:50:06;;;;;;;;;;;;;;;18.79;50.63;102664.78;4979217;28;19925;-82
2022/03/14 12:52:32;;;;;;;;;;;;;;;18.81;50.50;102663.06;4979150;28;19997;-82
2022/03/14 12:55:17;;;;;;;;;;;;;;;18.78;50.60;102670.88;4977895;29;19978;-81
2022/03/14 12:57:42;;;;;;;;;;;;;;;18.75;50.80;102671.66;4977440;28;19922;-81
2022/03/14 13:00:10;;;;;;;;;;;;;;;18.76;50.63;102668.19;4992613;28;19926;-82
2022/03/14 13:02:35;;;;;;;;;;;;;;;18.80;51.14;102672.63;4975376;28;19970;-82
2022/03/14 13:05:01;;;;;;;;;;;;;;;18.83;51.53;102674.41;4974696;28;19915;-81
2022/03/14 13:07:27;;;;;;;;;;;;;;;18.85;51.72;102678.78;4974152;29;19914;-82
2022/03/14 13:09:54;;;;;;;;;;;;;;;18.93;51.67;102680.66;4975383;29;19914;-82
2022/03/14 13:12:19;;;;;;;;;;;;;;;18.96;51.26;102678.06;4975499;29;19922;-82
2022/03/14 13:14:45;;;;;;;;;;;;;;;18.97;50.97;102685.94;4973570;28;19915;-82
2022/03/14 13:17:10;;;;;;;;;;;;;;;18.94;51.33;102678.03;4973644;28;19915;-82
2022/03/14 13:19:37;;;;;;;;;;;;;;;18.97;51.41;102679.84;4977176;29;20347;-83
2022/03/14 13:22:12;;;;;;;;;;;;;;;18.98;51.28;102686.78;4979265;28;19965;-81
2022/03/14 13:24:38;;;;;;;;;;;;;;;19.00;51.15;102691.16;4966001;29;19986;-79